createdAt,value
2017-06-23T00:00:29.121Z,26.91
2017-06-23T00:01:09.620Z,26.91
2017-06-23T00:01:50.114Z,27
2017-06-23T00:02:30.615Z,26.95
2017-06-23T00:03:11.117Z,27
2017-06-23T00:03:51.618Z,27
2017-06-23T00:04:32.115Z,26.91
2017-06-23T00:05:12.606Z,27
2017-06-23T00:05:53.112Z,26.95
2017-06-23T00:06:33.594Z,27.03
2017-06-23T00:07:14.094Z,26.92
2017-06-23T00:07:54.581Z,26.95
2017-06-23T00:08:35.073Z,26.91
2017-06-23T00:09:15.569Z,26.99
2017-06-23T00:09:56.071Z,26.95
2017-06-23T00:10:36.568Z,26.91
2017-06-23T00:11:17.069Z,26.94
2017-06-23T00:11:57.564Z,26.92
2017-06-23T00:12:38.057Z,26.85
2017-06-23T00:13:18.553Z,26.85
2017-06-23T00:13:59.046Z,26.92
2017-06-23T00:14:39.554Z,26.84
2017-06-23T00:15:20.054Z,26.88
2017-06-23T00:16:00.573Z,26.84
2017-06-23T00:16:41.079Z,26.84
2017-06-23T00:17:21.573Z,26.89
2017-06-23T00:18:02.081Z,26.84
2017-06-23T00:18:42.580Z,26.85
2017-06-23T00:19:23.081Z,26.87
2017-06-23T00:20:03.580Z,26.85
2017-06-23T00:20:44.070Z,26.85
2017-06-23T00:21:24.571Z,26.91
2017-06-23T00:22:05.072Z,26.85
2017-06-23T00:22:45.574Z,26.87
2017-06-23T00:23:26.071Z,26.87
2017-06-23T00:24:06.564Z,26.87
2017-06-23T00:24:47.094Z,26.84
2017-06-23T00:25:27.588Z,26.82
2017-06-23T00:26:08.068Z,26.8
2017-06-23T00:26:48.571Z,26.8
2017-06-23T00:27:29.067Z,26.73
2017-06-23T00:28:09.558Z,26.75
2017-06-23T00:28:50.061Z,26.81
2017-06-23T00:29:30.568Z,26.81
2017-06-23T00:30:11.063Z,26.85
2017-06-23T00:30:51.565Z,26.82
2017-06-23T00:31:32.048Z,26.84
2017-06-23T00:32:12.549Z,26.89
2017-06-23T00:32:53.046Z,26.81
2017-06-23T00:33:33.535Z,26.82
2017-06-23T00:34:14.035Z,26.84
2017-06-23T00:34:54.544Z,26.87
2017-06-23T00:35:35.043Z,26.84
2017-06-23T00:36:15.542Z,26.84
2017-06-23T00:36:56.046Z,26.82
2017-06-23T00:37:36.548Z,26.84
2017-06-23T00:38:17.083Z,26.84
2017-06-23T00:38:57.598Z,26.84
2017-06-23T00:39:38.094Z,26.72
2017-06-23T00:40:18.586Z,26.84
2017-06-23T00:40:59.081Z,26.77
2017-06-23T00:41:39.585Z,26.7
2017-06-23T00:42:20.091Z,26.72
2017-06-23T00:43:00.587Z,26.81
2017-06-23T00:43:41.082Z,26.69
2017-06-23T00:44:21.575Z,26.73
2017-06-23T00:45:02.058Z,26.7
2017-06-23T00:45:42.559Z,26.62
2017-06-23T00:46:23.049Z,26.6
2017-06-23T00:47:03.555Z,26.58
2017-06-23T00:47:44.032Z,26.6
2017-06-23T00:48:24.527Z,26.62
2017-06-23T00:49:05.018Z,26.63
2017-06-23T00:49:45.513Z,26.63
2017-06-23T00:50:26.011Z,26.54
2017-06-23T00:51:06.508Z,26.55
2017-06-23T00:51:47.033Z,26.54
2017-06-23T00:52:27.515Z,26.52
2017-06-23T00:53:08.013Z,26.5
2017-06-23T00:53:48.515Z,26.47
2017-06-23T00:54:29.052Z,26.47
2017-06-23T00:55:09.553Z,26.48
2017-06-23T00:55:50.058Z,26.51
2017-06-23T00:56:30.563Z,26.45
2017-06-23T00:57:11.066Z,26.48
2017-06-23T00:57:51.563Z,26.48
2017-06-23T00:58:32.062Z,26.4
2017-06-23T00:59:12.570Z,26.32
2017-06-23T00:59:53.072Z,26.32
2017-06-23T01:00:33.567Z,26.44
2017-06-23T01:01:14.078Z,26.36
2017-06-23T01:01:54.581Z,26.37
2017-06-23T01:02:35.079Z,26.36
2017-06-23T01:03:15.579Z,26.3
2017-06-23T01:03:56.089Z,26.32
2017-06-23T01:04:36.584Z,26.3
2017-06-23T01:05:17.093Z,26.33
2017-06-23T01:05:57.615Z,26.33
2017-06-23T01:06:38.122Z,26.3
2017-06-23T01:07:18.652Z,26.33
2017-06-23T01:07:59.170Z,26.21
2017-06-23T01:08:39.673Z,26.33
2017-06-23T01:09:20.166Z,26.29
2017-06-23T01:10:00.647Z,26.33
2017-06-23T01:10:41.149Z,26.28
2017-06-23T01:11:21.644Z,26.28
2017-06-23T01:12:02.144Z,26.23
2017-06-23T01:12:42.638Z,26.28
2017-06-23T01:13:23.143Z,26.36
2017-06-23T01:14:03.643Z,26.21
2017-06-23T01:14:44.139Z,26.28
2017-06-23T01:15:24.631Z,26.25
2017-06-23T01:16:05.124Z,26.23
2017-06-23T01:16:45.627Z,26.21
2017-06-23T01:17:26.117Z,26.23
2017-06-23T01:18:06.608Z,26.13
2017-06-23T01:18:47.117Z,26.09
2017-06-23T01:19:27.633Z,26.1
2017-06-23T01:20:08.137Z,26.13
2017-06-23T01:20:48.638Z,26.09
2017-06-23T01:21:29.128Z,26.06
2017-06-23T01:22:09.625Z,26.12
2017-06-23T01:22:50.131Z,26.07
2017-06-23T01:23:30.633Z,26.12
2017-06-23T01:24:11.131Z,26.15
2017-06-23T01:24:51.630Z,26.17
2017-06-23T01:25:32.111Z,26.17
2017-06-23T01:26:12.615Z,26.2
2017-06-23T01:26:53.112Z,26.12
2017-06-23T01:27:33.612Z,26.07
2017-06-23T01:28:14.118Z,26.05
2017-06-23T01:28:54.618Z,26.01
2017-06-23T01:29:35.114Z,26.12
2017-06-23T01:30:15.612Z,26.09
2017-06-23T01:30:56.112Z,26.06
2017-06-23T01:31:36.613Z,26.09
2017-06-23T01:32:17.109Z,26.05
2017-06-23T01:32:57.601Z,26.12
2017-06-23T01:33:38.094Z,26.07
2017-06-23T01:34:18.604Z,26.06
2017-06-23T01:34:59.106Z,26.09
2017-06-23T01:35:39.611Z,26.02
2017-06-23T01:36:20.128Z,26.12
2017-06-23T01:37:00.623Z,26.09
2017-06-23T01:37:41.129Z,26.1
2017-06-23T01:38:21.634Z,26.07
2017-06-23T01:39:02.146Z,26.06
2017-06-23T01:39:42.626Z,26.12
2017-06-23T01:40:23.116Z,26.07
2017-06-23T01:41:03.617Z,26.06
2017-06-23T01:41:44.115Z,25.97
2017-06-23T01:42:24.618Z,25.99
2017-06-23T01:43:05.120Z,25.98
2017-06-23T01:43:45.618Z,25.97
2017-06-23T01:44:26.111Z,26.02
2017-06-23T01:45:06.616Z,25.95
2017-06-23T01:45:47.112Z,26.02
2017-06-23T01:46:27.645Z,25.94
2017-06-23T01:47:08.145Z,26.12
2017-06-23T01:47:48.638Z,25.94
2017-06-23T01:48:29.139Z,25.9
2017-06-23T01:49:09.648Z,25.87
2017-06-23T01:49:50.151Z,25.88
2017-06-23T01:50:30.647Z,25.91
2017-06-23T01:51:11.139Z,25.9
2017-06-23T01:51:51.630Z,25.91
2017-06-23T01:52:32.133Z,25.9
2017-06-23T01:53:12.635Z,25.91
2017-06-23T01:53:53.135Z,25.94
2017-06-23T01:54:33.630Z,25.94
2017-06-23T01:55:14.127Z,25.9
2017-06-23T01:55:54.622Z,25.92
2017-06-23T01:56:35.114Z,25.97
2017-06-23T01:57:15.614Z,25.91
2017-06-23T01:57:56.120Z,25.77
2017-06-23T01:58:36.618Z,25.8
2017-06-23T01:59:17.123Z,25.8
2017-06-23T01:59:57.631Z,25.77
2017-06-23T02:00:38.120Z,25.77
2017-06-23T02:01:18.616Z,25.72
2017-06-23T02:01:59.120Z,25.77
2017-06-23T02:02:39.639Z,25.72
2017-06-23T02:03:20.128Z,25.73
2017-06-23T02:04:00.625Z,25.75
2017-06-23T02:04:41.118Z,25.73
2017-06-23T02:05:21.610Z,25.67
2017-06-23T02:06:02.104Z,25.69
2017-06-23T02:06:42.592Z,25.62
2017-06-23T02:07:23.092Z,25.64
2017-06-23T02:08:03.597Z,25.67
2017-06-23T02:08:44.095Z,25.62
2017-06-23T02:09:24.596Z,25.7
2017-06-23T02:10:05.093Z,25.61
2017-06-23T02:10:45.593Z,25.67
2017-06-23T02:11:26.102Z,25.62
2017-06-23T02:12:06.592Z,25.61
2017-06-23T02:12:47.089Z,25.6
2017-06-23T02:13:27.581Z,25.6
2017-06-23T02:14:08.085Z,25.58
2017-06-23T02:14:48.585Z,25.61
2017-06-23T02:15:29.088Z,25.6
2017-06-23T02:16:09.592Z,25.6
2017-06-23T02:16:50.094Z,25.51
2017-06-23T02:17:30.597Z,25.52
2017-06-23T02:18:11.095Z,25.6
2017-06-23T02:18:51.596Z,25.5
2017-06-23T02:19:32.094Z,25.55
2017-06-23T02:20:12.587Z,25.52
2017-06-23T02:20:53.086Z,25.5
2017-06-23T02:21:33.594Z,25.43
2017-06-23T02:22:14.088Z,25.47
2017-06-23T02:22:54.581Z,25.46
2017-06-23T02:23:35.071Z,25.45
2017-06-23T02:24:15.563Z,25.5
2017-06-23T02:24:56.060Z,25.43
2017-06-23T02:25:36.553Z,25.51
2017-06-23T02:26:17.042Z,25.42
2017-06-23T02:26:57.543Z,25.51
2017-06-23T02:27:38.040Z,25.4
2017-06-23T02:28:18.541Z,25.4
2017-06-23T02:28:59.041Z,25.36
2017-06-23T02:29:39.536Z,25.4
2017-06-23T02:30:20.028Z,25.42
2017-06-23T02:31:00.525Z,25.27
2017-06-23T02:31:41.023Z,25.35
2017-06-23T02:32:21.535Z,25.33
2017-06-23T02:33:02.034Z,25.28
2017-06-23T02:33:42.535Z,25.24
2017-06-23T02:34:23.033Z,25.35
2017-06-23T02:35:03.539Z,25.3
2017-06-23T02:35:44.034Z,25.33
2017-06-23T02:36:24.533Z,25.24
2017-06-23T02:37:05.035Z,25.25
2017-06-23T02:37:45.538Z,25.18
2017-06-23T02:38:26.057Z,25.35
2017-06-23T02:39:06.529Z,25.23
2017-06-23T02:39:47.026Z,25.25
2017-06-23T02:40:27.519Z,25.23
2017-06-23T02:41:08.008Z,25.33
2017-06-23T02:41:48.506Z,25.18
2017-06-23T02:42:29.009Z,25.15
2017-06-23T02:43:09.509Z,25.23
2017-06-23T02:43:50.007Z,25.14
2017-06-23T02:44:30.502Z,25.17
2017-06-23T02:45:10.997Z,25.17
2017-06-23T02:45:51.490Z,25.1
2017-06-23T02:46:31.994Z,25.2
2017-06-23T02:47:12.484Z,25.2
2017-06-23T02:47:52.996Z,25.18
2017-06-23T02:48:33.493Z,25.15
2017-06-23T02:49:13.992Z,25.14
2017-06-23T02:49:54.499Z,25.1
2017-06-23T02:50:35.003Z,25.08
2017-06-23T02:51:15.498Z,25.1
2017-06-23T02:51:55.995Z,25.13
2017-06-23T02:52:36.499Z,25.09
2017-06-23T02:53:16.999Z,25.08
2017-06-23T02:53:57.502Z,25.06
2017-06-23T02:54:37.992Z,25.03
2017-06-23T02:55:18.493Z,25.13
2017-06-23T02:55:58.986Z,25.1
2017-06-23T02:56:39.482Z,25.09
2017-06-23T02:57:19.978Z,25.03
2017-06-23T02:58:00.483Z,24.99
2017-06-23T02:58:40.980Z,25.05
2017-06-23T02:59:21.485Z,24.99
2017-06-23T03:00:01.990Z,25.06
2017-06-23T03:00:42.493Z,25.03
2017-06-23T03:01:22.983Z,25
2017-06-23T03:02:03.483Z,25
2017-06-23T03:02:43.972Z,24.96
2017-06-23T03:03:24.467Z,25.03
2017-06-23T03:04:04.983Z,24.91
2017-06-23T03:04:45.477Z,24.98
2017-06-23T03:05:25.973Z,24.98
2017-06-23T03:06:06.466Z,24.9
2017-06-23T03:06:46.971Z,24.96
2017-06-23T03:07:27.468Z,24.91
2017-06-23T03:08:07.972Z,24.99
2017-06-23T03:08:48.471Z,24.99
2017-06-23T03:09:28.973Z,24.95
2017-06-23T03:10:09.482Z,25.03
2017-06-23T03:10:49.976Z,24.98
2017-06-23T03:11:31.425Z,24.91
2017-06-23T03:12:11.918Z,24.96
2017-06-23T03:12:52.411Z,24.95
2017-06-23T03:13:32.911Z,24.87
2017-06-23T03:14:13.411Z,24.99
2017-06-23T03:14:53.927Z,24.9
2017-06-23T03:15:34.427Z,24.95
2017-06-23T03:16:14.924Z,24.96
2017-06-23T03:16:55.422Z,24.88
2017-06-23T03:17:35.923Z,24.93
2017-06-23T03:18:16.418Z,24.93
2017-06-23T03:18:56.918Z,24.98
2017-06-23T03:19:37.413Z,24.91
2017-06-23T03:20:17.902Z,24.95
2017-06-23T03:20:58.406Z,24.9
2017-06-23T03:21:38.908Z,24.91
2017-06-23T03:22:19.409Z,24.95
2017-06-23T03:22:59.904Z,24.9
2017-06-23T03:23:40.404Z,24.91
2017-06-23T03:24:20.914Z,24.91
2017-06-23T03:25:01.413Z,24.91
2017-06-23T03:25:41.911Z,24.95
2017-06-23T03:26:22.420Z,24.93
2017-06-23T03:27:02.924Z,24.87
2017-06-23T03:27:43.428Z,24.91
2017-06-23T03:28:23.929Z,24.96
2017-06-23T03:29:04.429Z,24.81
2017-06-23T03:29:44.926Z,24.87
2017-06-23T03:30:25.419Z,24.88
2017-06-23T03:31:05.908Z,24.81
2017-06-23T03:31:46.408Z,24.88
2017-06-23T03:32:26.893Z,24.78
2017-06-23T03:33:07.399Z,24.88
2017-06-23T03:33:47.901Z,24.91
2017-06-23T03:34:28.402Z,24.93
2017-06-23T03:35:08.899Z,24.91
2017-06-23T03:35:49.397Z,24.95
2017-06-23T03:36:29.884Z,24.95
2017-06-23T03:37:10.386Z,24.93
2017-06-23T03:37:50.896Z,24.93
2017-06-23T03:38:31.395Z,24.93
2017-06-23T03:39:11.885Z,24.96
2017-06-23T03:39:52.387Z,25
2017-06-23T03:40:32.890Z,25.08
2017-06-23T03:41:13.391Z,25.02
2017-06-23T03:41:53.888Z,25.06
2017-06-23T03:42:34.384Z,25.05
2017-06-23T03:43:14.872Z,25.08
2017-06-23T03:43:55.371Z,25.09
2017-06-23T03:44:35.861Z,25.09
2017-06-23T03:45:16.358Z,25.06
2017-06-23T03:45:56.857Z,25.13
2017-06-23T03:46:37.366Z,25.2
2017-06-23T03:47:17.874Z,25.17
2017-06-23T03:47:58.383Z,25.15
2017-06-23T03:48:38.884Z,25.18
2017-06-23T03:49:19.377Z,25.13
2017-06-23T03:49:59.861Z,25.13
2017-06-23T03:50:40.359Z,25.2
2017-06-23T03:51:20.851Z,25.18
2017-06-23T03:52:01.354Z,25.23
2017-06-23T03:52:41.838Z,25.18
2017-06-23T03:53:22.327Z,25.13
2017-06-23T03:54:02.844Z,25.06
2017-06-23T03:54:43.345Z,25.09
2017-06-23T03:55:23.836Z,25.08
2017-06-23T03:56:04.334Z,25.09
2017-06-23T03:56:44.828Z,25.13
2017-06-23T03:57:25.314Z,25.09
2017-06-23T03:58:05.814Z,25.09
2017-06-23T03:58:46.303Z,25.15
2017-06-23T03:59:26.815Z,25.17
2017-06-23T04:00:07.316Z,25.09
2017-06-23T04:00:47.813Z,25.13
2017-06-23T04:01:28.334Z,25.14
2017-06-23T04:02:08.832Z,25.08
2017-06-23T04:02:49.332Z,25.06
2017-06-23T04:03:29.843Z,25.09
2017-06-23T04:04:10.336Z,25.06
2017-06-23T04:04:50.833Z,25.1
2017-06-23T04:05:31.328Z,25.1
2017-06-23T04:06:11.819Z,25.03
2017-06-23T04:06:52.313Z,25.08
2017-06-23T04:07:32.804Z,25.13
2017-06-23T04:08:13.303Z,25.05
2017-06-23T04:08:53.818Z,25.14
2017-06-23T04:09:34.309Z,25.15
2017-06-23T04:10:14.810Z,25.18
2017-06-23T04:10:55.295Z,25.13
2017-06-23T04:11:35.794Z,25.15
2017-06-23T04:12:16.297Z,25.18
2017-06-23T04:12:56.808Z,25.2
2017-06-23T04:13:37.299Z,25.06
2017-06-23T04:14:17.789Z,25.13
2017-06-23T04:14:58.286Z,25.21
2017-06-23T04:15:38.777Z,25.13
2017-06-23T04:16:19.281Z,25.17
2017-06-23T04:16:59.773Z,25.17
2017-06-23T04:17:40.287Z,25.17
2017-06-23T04:18:20.781Z,25.24
2017-06-23T04:19:01.275Z,25.25
2017-06-23T04:19:41.772Z,25.21
2017-06-23T04:20:22.273Z,25.2
2017-06-23T04:21:02.780Z,25.23
2017-06-23T04:21:43.280Z,25.18
2017-06-23T04:22:23.773Z,25.33
2017-06-23T04:23:04.269Z,25.25
2017-06-23T04:23:44.771Z,25.32
2017-06-23T04:24:25.278Z,25.36
2017-06-23T04:25:05.771Z,25.2
2017-06-23T04:25:46.268Z,25.27
2017-06-23T04:26:26.774Z,25.21
2017-06-23T04:27:07.290Z,25.35
2017-06-23T04:27:47.773Z,25.24
2017-06-23T04:28:28.267Z,25.23
2017-06-23T04:29:08.760Z,25.25
2017-06-23T04:29:49.264Z,25.21
2017-06-23T04:30:29.749Z,25.32
2017-06-23T04:31:10.244Z,25.3
2017-06-23T04:31:50.859Z,25.24
2017-06-23T04:32:31.356Z,25.3
2017-06-23T04:33:11.854Z,25.4
2017-06-23T04:33:52.347Z,25.43
2017-06-23T04:34:32.847Z,25.28
2017-06-23T04:35:13.342Z,25.38
2017-06-23T04:35:53.842Z,25.47
2017-06-23T04:36:34.344Z,25.46
2017-06-23T04:37:14.841Z,25.54
2017-06-23T04:37:55.338Z,25.47
2017-06-23T04:38:35.832Z,25.47
2017-06-23T04:39:16.334Z,25.55
2017-06-23T04:39:56.838Z,25.47
2017-06-23T04:40:37.338Z,25.55
2017-06-23T04:41:17.858Z,25.51
2017-06-23T04:41:58.361Z,25.43
2017-06-23T04:42:38.855Z,25.57
2017-06-23T04:43:19.354Z,25.64
2017-06-23T04:43:59.865Z,25.67
2017-06-23T04:44:40.361Z,25.57
2017-06-23T04:45:20.865Z,25.6
2017-06-23T04:46:01.374Z,25.65
2017-06-23T04:46:41.878Z,25.69
2017-06-23T04:47:22.372Z,25.7
2017-06-23T04:48:02.870Z,25.75
2017-06-23T04:48:43.377Z,25.7
2017-06-23T04:49:23.878Z,25.77
2017-06-23T04:50:04.375Z,25.83
2017-06-23T04:50:44.857Z,25.85
2017-06-23T04:51:25.361Z,25.75
2017-06-23T04:52:05.861Z,25.75
2017-06-23T04:52:46.362Z,25.85
2017-06-23T04:53:26.858Z,25.88
2017-06-23T04:54:07.355Z,25.92
2017-06-23T04:54:47.847Z,25.95
2017-06-23T04:55:28.345Z,25.88
2017-06-23T04:56:08.843Z,25.83
2017-06-23T04:56:49.348Z,25.75
2017-06-23T04:57:29.849Z,25.8
2017-06-23T04:58:10.339Z,25.79
2017-06-23T04:58:50.835Z,25.75
2017-06-23T04:59:31.329Z,25.82
2017-06-23T05:00:11.834Z,25.91
2017-06-23T05:00:52.335Z,25.95
2017-06-23T05:01:32.832Z,26.07
2017-06-23T05:02:13.332Z,26.02
2017-06-23T05:02:53.883Z,25.94
2017-06-23T05:03:34.498Z,25.94
2017-06-23T05:04:15.109Z,25.94
2017-06-23T05:04:55.608Z,25.94
2017-06-23T05:05:36.105Z,26.07
2017-06-23T05:06:16.588Z,26.18
2017-06-23T05:06:57.086Z,26.32
2017-06-23T05:07:37.631Z,26.35
2017-06-23T05:08:18.134Z,26.37
2017-06-23T05:08:58.628Z,26.12
2017-06-23T05:09:39.123Z,26.07
2017-06-23T05:10:19.599Z,26.18
2017-06-23T05:11:00.108Z,26.28
2017-06-23T05:11:40.597Z,26.3
2017-06-23T05:12:21.119Z,26.3
2017-06-23T05:13:01.617Z,26.36
2017-06-23T05:13:42.112Z,26.26
2017-06-23T05:14:22.613Z,26.4
2017-06-23T05:15:03.121Z,26.36
2017-06-23T05:15:43.624Z,26.36
2017-06-23T05:16:24.124Z,26.35
2017-06-23T05:17:04.622Z,26.4
2017-06-23T05:17:45.111Z,26.43
2017-06-23T05:18:25.616Z,26.43
2017-06-23T05:19:06.121Z,26.57
2017-06-23T05:19:46.615Z,26.7
2017-06-23T05:20:27.127Z,26.73
2017-06-23T05:21:07.607Z,26.75
2017-06-23T05:21:48.102Z,26.6
2017-06-23T05:22:28.588Z,26.76
2017-06-23T05:23:09.089Z,26.73
2017-06-23T05:23:49.593Z,26.58
2017-06-23T05:24:30.091Z,26.65
2017-06-23T05:25:10.618Z,26.75
2017-06-23T05:25:51.119Z,26.72
2017-06-23T05:26:31.629Z,26.81
2017-06-23T05:27:12.131Z,26.7
2017-06-23T05:27:52.633Z,26.66
2017-06-23T05:28:33.138Z,26.84
2017-06-23T05:29:13.642Z,26.84
2017-06-23T05:29:54.164Z,26.77
2017-06-23T05:30:34.657Z,26.82
2017-06-23T05:31:15.162Z,26.77
2017-06-23T05:31:55.648Z,26.85
2017-06-23T05:32:36.186Z,26.82
2017-06-23T05:33:16.659Z,27
2017-06-23T05:33:57.158Z,26.94
2017-06-23T05:34:37.657Z,27.1
2017-06-23T05:35:18.158Z,27.12
2017-06-23T05:35:58.659Z,27.18
2017-06-23T05:36:39.172Z,27.18
2017-06-23T05:37:19.679Z,27.17
2017-06-23T05:38:00.179Z,27.04
2017-06-23T05:38:40.678Z,27.21
2017-06-23T05:39:21.185Z,27.17
2017-06-23T05:40:01.693Z,26.95
2017-06-23T05:40:42.185Z,26.94
2017-06-23T05:41:22.676Z,27.14
2017-06-23T05:42:03.164Z,27.04
2017-06-23T05:42:43.689Z,26.97
2017-06-23T05:43:24.195Z,27.12
2017-06-23T05:44:04.696Z,27.13
2017-06-23T05:44:45.197Z,27.12
2017-06-23T05:45:25.697Z,27.06
2017-06-23T05:46:06.204Z,27
2017-06-23T05:46:46.706Z,27.03
2017-06-23T05:47:27.207Z,27.12
2017-06-23T05:48:07.697Z,27.25
2017-06-23T05:48:48.191Z,27.18
2017-06-23T05:49:28.694Z,27.12
2017-06-23T05:50:09.203Z,27.06
2017-06-23T05:50:49.701Z,27.21
2017-06-23T05:51:30.203Z,27.34
2017-06-23T05:52:10.699Z,27.44
2017-06-23T05:52:51.199Z,27.43
2017-06-23T05:53:31.748Z,27.57
2017-06-23T05:54:12.252Z,27.49
2017-06-23T05:54:52.751Z,27.44
2017-06-23T05:55:33.250Z,27.47
2017-06-23T05:56:13.748Z,27.49
2017-06-23T05:56:54.240Z,27.41
2017-06-23T05:57:34.750Z,27.4
2017-06-23T05:58:15.272Z,27.21
2017-06-23T05:58:55.744Z,27.09
2017-06-23T05:59:36.235Z,27.1
2017-06-23T06:00:16.752Z,27.1
2017-06-23T06:00:57.228Z,27.27
2017-06-23T06:01:37.725Z,27.39
2017-06-23T06:02:18.230Z,27.27
2017-06-23T06:02:58.729Z,27.36
2017-06-23T06:03:39.231Z,27.19
2017-06-23T06:04:19.787Z,27.39
2017-06-23T06:05:00.284Z,27.54
2017-06-23T06:05:40.793Z,27.55
2017-06-23T06:06:21.275Z,27.54
2017-06-23T06:07:01.775Z,27.81
2017-06-23T06:07:42.343Z,27.57
2017-06-23T06:08:22.841Z,27.84
2017-06-23T06:10:10.304Z,27.82
2017-06-23T06:10:50.804Z,27.94
2017-06-23T06:12:48.427Z,28.09
2017-06-23T06:13:28.923Z,28
2017-06-23T06:14:09.418Z,27.96
2017-06-23T06:14:49.920Z,28.02
2017-06-23T06:15:30.428Z,27.97
2017-06-23T06:16:10.928Z,27.92
2017-06-23T06:16:51.426Z,27.92
2017-06-23T06:17:31.915Z,27.92
2017-06-23T06:18:12.422Z,27.97
2017-06-23T06:18:52.924Z,27.96
2017-06-23T06:19:33.421Z,27.93
2017-06-23T06:20:13.922Z,27.84
2017-06-23T06:20:54.440Z,27.72
2017-06-23T06:21:34.961Z,27.66
2017-06-23T06:22:15.481Z,27.62
2017-06-23T06:22:55.982Z,27.43
2017-06-23T06:23:36.497Z,27.37
2017-06-23T06:24:17.007Z,27.43
2017-06-23T06:24:57.497Z,27.14
2017-06-23T06:25:37.995Z,27.14
2017-06-23T06:26:18.477Z,27.03
2017-06-23T06:26:58.975Z,27
2017-06-23T06:27:39.473Z,27.03
2017-06-23T06:28:19.971Z,26.95
2017-06-23T06:29:00.475Z,26.72
2017-06-23T06:29:40.987Z,26.85
2017-06-23T06:30:21.505Z,26.77
2017-06-23T06:31:01.999Z,26.73
2017-06-23T06:31:42.500Z,26.75
2017-06-23T06:32:23.009Z,26.7
2017-06-23T06:33:03.507Z,26.7
2017-06-23T06:33:44.004Z,26.76
2017-06-23T06:34:24.492Z,26.67
2017-06-23T06:35:05.046Z,26.75
2017-06-23T06:35:45.572Z,26.84
2017-06-23T06:36:26.071Z,26.88
2017-06-23T06:37:06.567Z,26.81
2017-06-23T06:37:47.072Z,26.85
2017-06-23T06:38:27.574Z,26.97
2017-06-23T06:39:08.102Z,26.85
2017-06-23T06:39:48.601Z,27.03
2017-06-23T06:40:29.104Z,26.92
2017-06-23T06:41:09.604Z,27.02
2017-06-23T06:41:50.114Z,26.94
2017-06-23T06:42:30.606Z,27.03
2017-06-23T06:43:11.101Z,26.94
2017-06-23T06:43:51.611Z,27.12
2017-06-23T06:44:32.136Z,26.91
2017-06-23T06:45:12.638Z,26.89
2017-06-23T06:45:53.135Z,26.94
2017-06-23T06:46:33.630Z,26.73
2017-06-23T06:47:14.132Z,26.8
2017-06-23T06:47:54.635Z,26.85
2017-06-23T06:48:35.133Z,26.92
2017-06-23T06:49:15.649Z,26.91
2017-06-23T06:49:56.185Z,27.04
2017-06-23T06:50:36.650Z,27.06
2017-06-23T06:51:17.140Z,26.94
2017-06-23T06:51:57.634Z,26.91
2017-06-23T06:52:38.132Z,27.03
2017-06-23T06:53:18.630Z,27.21
2017-06-23T06:53:59.117Z,27.29
2017-06-23T06:54:39.619Z,27.32
2017-06-23T06:55:20.130Z,27.36
2017-06-23T06:56:00.622Z,27.39
2017-06-23T06:56:41.114Z,27.49
2017-06-23T06:57:21.607Z,27.27
2017-06-23T06:58:02.134Z,27.31
2017-06-23T06:58:42.639Z,27.18
2017-06-23T06:59:23.155Z,27.25
2017-06-23T07:00:03.642Z,27.21
2017-06-23T07:00:44.131Z,27.18
2017-06-23T07:01:24.627Z,27.27
2017-06-23T07:02:05.123Z,27.4
2017-06-23T07:02:45.624Z,27.59
2017-06-23T07:03:26.155Z,27.87
2017-06-23T07:04:06.655Z,27.79
2017-06-23T07:04:47.164Z,27.93
2017-06-23T07:05:27.668Z,27.85
2017-06-23T07:06:08.206Z,27.85
2017-06-23T07:06:48.737Z,28.04
2017-06-23T07:07:29.263Z,27.93
2017-06-23T07:08:09.758Z,27.92
2017-06-23T07:08:50.262Z,27.96
2017-06-23T07:09:30.772Z,27.92
2017-06-23T07:10:11.271Z,27.59
2017-06-23T07:10:51.789Z,27.6
2017-06-23T07:11:32.383Z,27.6
2017-06-23T07:12:12.904Z,27.5
2017-06-23T07:12:53.405Z,27.43
2017-06-23T07:13:33.913Z,27.31
2017-06-23T07:14:14.411Z,27.04
2017-06-23T07:14:54.905Z,27.24
2017-06-23T07:15:35.504Z,27.28
2017-06-23T07:16:15.999Z,27.44
2017-06-23T07:16:56.532Z,27.57
2017-06-23T07:17:37.084Z,27.55
2017-06-23T07:18:17.608Z,27.66
2017-06-23T07:18:58.166Z,27.54
2017-06-23T07:19:38.671Z,27.57
2017-06-23T07:20:19.173Z,27.62
2017-06-23T07:20:59.704Z,27.78
2017-06-23T07:21:40.209Z,27.78
2017-06-23T07:22:20.714Z,27.79
2017-06-23T07:23:01.200Z,27.85
2017-06-23T07:23:41.760Z,27.46
2017-06-23T07:24:22.278Z,27.44
2017-06-23T07:25:02.782Z,27.46
2017-06-23T07:25:43.291Z,27.77
2017-06-23T07:26:23.896Z,27.84
2017-06-23T07:27:04.362Z,27.54
2017-06-23T07:27:44.930Z,27.77
2017-06-23T07:28:25.475Z,27.93
2017-06-23T07:29:05.982Z,27.74
2017-06-23T07:29:46.519Z,28.07
2017-06-23T07:30:27.035Z,28.31
2017-06-23T07:32:14.512Z,28.62
2017-06-23T07:32:55.003Z,28.98
2017-06-23T07:33:35.490Z,29.34
2017-06-23T07:34:15.991Z,29.65
2017-06-23T07:34:56.476Z,29.68
2017-06-23T07:35:36.992Z,29.97
2017-06-23T07:36:17.528Z,30.26
2017-06-23T07:36:58.022Z,30.32
2017-06-23T07:37:38.519Z,30.51
2017-06-23T07:38:19.076Z,30.37
2017-06-23T07:38:59.595Z,30.86
2017-06-23T07:39:40.116Z,30.95
2017-06-23T07:40:20.612Z,31.19
2017-06-23T07:41:01.134Z,30.79
2017-06-23T07:41:41.660Z,31.12
2017-06-23T07:42:22.135Z,31.23
2017-06-23T07:43:59.498Z,31.01
2017-06-23T07:44:40.038Z,31.02
2017-06-23T07:45:20.541Z,30.92
2017-06-23T07:46:01.046Z,31.01
2017-06-23T07:46:41.558Z,31.26
2017-06-23T07:47:22.064Z,31.12
2017-06-23T07:48:02.565Z,31.06
2017-06-23T07:48:43.126Z,31.17
2017-06-23T07:49:23.636Z,31.34
2017-06-23T07:50:04.176Z,31.17
2017-06-23T07:50:44.673Z,31.44
2017-06-23T07:51:25.172Z,31.99
2017-06-23T07:52:05.771Z,32.13
2017-06-23T07:52:46.333Z,32.32
2017-06-23T07:53:26.829Z,32.41
2017-06-23T07:54:07.363Z,32.66
2017-06-23T07:54:47.855Z,32.59
2017-06-23T07:55:28.360Z,32.57
2017-06-23T07:56:08.847Z,32.52
2017-06-23T07:56:49.331Z,32.29
2017-06-23T07:57:29.826Z,32.43
2017-06-23T07:58:10.321Z,32.79
2017-06-23T07:58:50.825Z,33.07
2017-06-23T07:59:31.357Z,32.81
2017-06-23T08:00:11.866Z,32.82
2017-06-23T08:00:52.364Z,33.09
2017-06-23T08:01:32.865Z,33.37
2017-06-23T08:02:13.368Z,33.35
2017-06-23T08:02:53.909Z,32.81
2017-06-23T08:03:34.413Z,32.13
2017-06-23T08:04:14.993Z,32.62
2017-06-23T08:04:55.522Z,33
2017-06-23T08:05:36.025Z,32.87
2017-06-23T08:06:16.567Z,32.94
2017-06-23T08:06:57.050Z,32.94
2017-06-23T08:07:37.585Z,32.37
2017-06-23T08:08:18.659Z,32.52
2017-06-23T08:08:59.114Z,32.96
2017-06-23T08:09:39.618Z,32.67
2017-06-23T08:10:20.198Z,32.84
2017-06-23T08:11:00.747Z,32.88
2017-06-23T08:11:41.215Z,33.03
2017-06-23T08:12:21.756Z,33.38
2017-06-23T08:13:02.250Z,33.37
2017-06-23T08:13:42.742Z,33.56
2017-06-23T08:14:23.259Z,33.86
2017-06-23T08:15:03.757Z,33.94
2017-06-23T08:15:44.263Z,33.6
2017-06-23T08:16:24.769Z,34.02
2017-06-23T08:17:05.275Z,33.71
2017-06-23T08:17:45.789Z,33.82
2017-06-23T08:18:26.315Z,32.82
2017-06-23T08:19:06.806Z,32.88
2017-06-23T08:19:47.316Z,32.59
2017-06-23T08:20:27.813Z,32.7
2017-06-23T08:21:08.320Z,32.99
2017-06-23T08:21:48.821Z,33.04
2017-06-23T08:22:29.310Z,33.41
2017-06-23T08:23:09.876Z,33.49
2017-06-23T08:23:50.428Z,33.41
2017-06-23T08:24:30.928Z,33.94
2017-06-23T08:25:11.415Z,33.9
2017-06-23T08:25:51.917Z,34
2017-06-23T08:26:32.434Z,34.5
2017-06-23T08:27:12.925Z,34.56
2017-06-23T08:27:53.439Z,34.56
2017-06-23T08:28:33.946Z,34.32
2017-06-23T08:29:14.476Z,34.43
2017-06-23T08:29:55.024Z,34.7
2017-06-23T08:30:35.559Z,34.19
2017-06-23T08:31:16.095Z,34.15
2017-06-23T08:31:56.615Z,34.7
2017-06-23T08:32:37.154Z,34.8
2017-06-23T08:33:17.687Z,34.82
2017-06-23T08:33:58.383Z,35.22
2017-06-23T08:34:38.915Z,34.8
2017-06-23T08:35:19.450Z,33.95
2017-06-23T08:36:00.009Z,33.91
2017-06-23T08:36:40.507Z,33.65
2017-06-23T08:37:21.052Z,33.88
2017-06-23T08:38:01.579Z,34.49
2017-06-23T08:38:42.207Z,34.73
2017-06-23T08:39:22.747Z,34.78
2017-06-23T08:40:03.250Z,34.94
2017-06-23T08:40:43.799Z,34.8
2017-06-23T08:41:24.321Z,34.97
2017-06-23T08:42:04.848Z,35.16
2017-06-23T08:42:45.416Z,35.33
2017-06-23T08:43:26.023Z,35.41
2017-06-23T08:44:06.586Z,35.26
2017-06-23T08:44:47.136Z,35.14
2017-06-23T08:45:27.683Z,34.85
2017-06-23T08:46:08.187Z,35.29
2017-06-23T08:47:55.724Z,36.01
2017-06-23T08:48:36.176Z,35.94
2017-06-23T08:49:16.745Z,34.53
2017-06-23T08:49:57.282Z,34.65